createdAt,value
2018-10-19T00:02:10.287Z,1.07
2018-10-19T00:04:38.404Z,0.67
2018-10-19T00:07:06.546Z,0.93
2018-10-19T00:09:34.616Z,0.87
2018-10-19T00:12:02.696Z,0.70
2018-10-19T00:14:30.764Z,1.00
2018-10-19T00:16:58.892Z,0.80
2018-10-19T00:19:26.893Z,1.57
2018-10-19T00:21:54.997Z,0.67
2018-10-19T00:24:23.048Z,1.03
2018-10-19T00:26:51.104Z,0.67
2018-10-19T00:29:19.210Z,0.77
2018-10-19T00:31:47.264Z,0.73
2018-10-19T00:34:15.335Z,0.57
2018-10-19T00:36:43.439Z,1.07
2018-10-19T00:39:12.780Z,3.30
2018-10-19T00:41:41.006Z,1.20
2018-10-19T00:44:09.061Z,1.43
2018-10-19T00:46:37.191Z,0.90
2018-10-19T00:49:06.235Z,0.77
2018-10-19T00:51:34.300Z,1.13
2018-10-19T00:54:02.373Z,1.00
2018-10-19T00:56:30.449Z,1.00
2018-10-19T00:58:58.556Z,1.00
2018-10-19T01:01:26.589Z,0.97
2018-10-19T01:03:54.687Z,1.30
2018-10-19T01:06:22.728Z,0.90
2018-10-19T01:08:50.831Z,1.53
2018-10-19T01:11:18.886Z,1.17
2018-10-19T01:13:47.014Z,1.17
2018-10-19T01:16:15.159Z,1.67
2018-10-19T01:18:47.891Z,1.40
2018-10-19T01:21:15.981Z,1.17
2018-10-19T01:23:44.053Z,1.33
2018-10-19T01:26:12.134Z,1.10
2018-10-19T01:28:40.210Z,0.80
2018-10-19T01:31:08.282Z,0.80
2018-10-19T01:33:36.387Z,0.90
2018-10-19T01:36:05.966Z,0.73
2018-10-19T01:38:34.612Z,1.53
2018-10-19T01:41:02.775Z,1.00
2018-10-19T01:43:30.848Z,0.80
2018-10-19T01:45:59.152Z,1.70
2018-10-19T01:48:27.867Z,0.83
2018-10-19T01:50:56.158Z,0.80
2018-10-19T01:53:24.235Z,1.73
2018-10-19T01:55:53.293Z,1.10
2018-10-19T01:58:22.367Z,1.20
2018-10-19T02:00:50.446Z,1.23
2018-10-19T02:03:18.542Z,1.43
2018-10-19T02:05:46.603Z,1.67
2018-10-19T02:08:14.701Z,1.07
2018-10-19T02:10:42.727Z,1.37
2018-10-19T02:13:11.023Z,1.20
2018-10-19T02:15:39.110Z,0.80
2018-10-19T02:18:07.205Z,1.10
2018-10-19T02:20:35.220Z,1.10
2018-10-19T02:23:03.353Z,1.20
2018-10-19T02:25:31.358Z,1.17
2018-10-19T02:27:59.477Z,1.27
2018-10-19T02:30:27.528Z,1.80
2018-10-19T02:32:55.619Z,1.63
2018-10-19T02:35:23.681Z,1.60
2018-10-19T02:37:51.715Z,0.87
2018-10-19T02:40:19.844Z,1.47
2018-10-19T02:42:47.872Z,1.00
2018-10-19T02:45:16.078Z,0.90
2018-10-19T02:47:44.088Z,1.17
2018-10-19T02:50:12.103Z,1.23
2018-10-19T02:52:40.166Z,1.37
2018-10-19T02:55:09.071Z,1.63
2018-10-19T02:57:37.131Z,1.13
2018-10-19T03:00:07.623Z,0.87
2018-10-19T03:02:35.708Z,1.00
2018-10-19T03:05:03.831Z,1.10
2018-10-19T03:07:31.947Z,0.90
2018-10-19T03:10:00.053Z,1.10
2018-10-19T03:12:28.117Z,0.97
2018-10-19T03:14:56.222Z,0.80
2018-10-19T03:17:24.261Z,1.23
2018-10-19T03:19:52.353Z,0.70
2018-10-19T03:22:20.447Z,1.00
2018-10-19T03:24:48.547Z,1.10
2018-10-19T03:27:16.827Z,1.40
2018-10-19T03:29:44.834Z,1.07
2018-10-19T03:32:12.951Z,0.93
2018-10-19T03:34:41.015Z,1.40
2018-10-19T03:37:09.109Z,0.77
2018-10-19T03:39:37.131Z,0.93
2018-10-19T03:42:06.204Z,0.80
2018-10-19T03:44:34.272Z,1.20
2018-10-19T03:47:02.371Z,0.97
2018-10-19T03:50:59.898Z,1.20
2018-10-19T03:54:52.432Z,1.07
2018-10-19T03:57:20.489Z,1.63
2018-10-19T03:59:56.717Z,1.37
2018-10-19T04:02:25.842Z,0.90
2018-10-19T04:04:57.753Z,1.00
2018-10-19T04:07:27.865Z,1.83
2018-10-19T04:09:57.011Z,1.43
2018-10-19T04:12:25.131Z,11.07
2018-10-19T04:14:54.204Z,2.13
2018-10-19T04:17:22.363Z,1.17
2018-10-19T04:19:50.477Z,0.90
2018-10-19T04:22:18.514Z,0.87
2018-10-19T04:24:46.601Z,1.90
2018-10-19T04:27:14.745Z,1.30
2018-10-19T04:29:42.880Z,1.13
2018-10-19T04:32:11.013Z,1.87
2018-10-19T04:34:39.056Z,1.73
2018-10-19T04:37:07.204Z,1.17
2018-10-19T04:39:35.738Z,1.63
2018-10-19T04:42:04.751Z,1.43
2018-10-19T04:44:32.687Z,0.97
2018-10-19T04:47:00.778Z,1.10
2018-10-19T04:49:29.053Z,1.67
2018-10-19T04:55:28.561Z,1.80
2018-10-19T04:57:56.660Z,0.97
2018-10-19T05:00:25.724Z,1.57
2018-10-19T05:02:54.861Z,1.20
2018-10-19T05:05:22.984Z,1.20
2018-10-19T05:07:51.988Z,1.07
2018-10-19T05:10:20.134Z,0.90
2018-10-19T05:12:48.245Z,1.53
2018-10-19T05:15:16.323Z,0.97
2018-10-19T05:17:44.376Z,1.50
2018-10-19T05:20:13.855Z,1.00
2018-10-19T05:22:41.859Z,1.27
2018-10-19T05:25:11.490Z,1.30
2018-10-19T05:27:39.533Z,2.17
2018-10-19T05:30:10.892Z,1.50
2018-10-19T05:32:39.873Z,1.53
2018-10-19T05:35:07.920Z,1.80
2018-10-19T05:39:44.878Z,1.03
2018-10-19T05:42:13.017Z,0.90
2018-10-19T05:44:41.082Z,2.53
2018-10-19T05:47:09.396Z,1.10
2018-10-19T05:49:37.344Z,1.60
2018-10-19T05:52:05.528Z,1.90
2018-10-19T05:54:33.613Z,1.63
2018-10-19T05:57:03.713Z,1.23
2018-10-19T05:59:31.839Z,1.47
2018-10-19T06:01:59.956Z,1.77
2018-10-19T06:04:28.099Z,1.00
2018-10-19T06:06:56.171Z,1.50
2018-10-19T06:09:24.394Z,1.57
2018-10-19T06:11:52.466Z,1.83
2018-10-19T06:14:20.516Z,1.23
2018-10-19T06:16:48.594Z,1.73
2018-10-19T06:19:20.549Z,1.47
2018-10-19T06:21:49.701Z,1.40
2018-10-19T06:24:17.723Z,1.20
2018-10-19T06:26:45.784Z,2.27
2018-10-19T06:29:13.869Z,1.67
2018-10-19T06:31:41.956Z,1.17
2018-10-19T06:34:10.047Z,1.17
2018-10-19T06:36:38.103Z,2.00
2018-10-19T06:39:08.381Z,1.50
2018-10-19T06:41:36.478Z,1.43
2018-10-19T06:44:04.848Z,1.10
2018-10-19T06:46:33.976Z,1.40
2018-10-19T06:49:03.074Z,1.40
2018-10-19T06:51:32.160Z,1.40
2018-10-19T06:54:00.241Z,1.20
2018-10-19T06:56:28.435Z,1.43
2018-10-19T06:58:56.546Z,1.60
2018-10-19T07:01:24.574Z,1.10
2018-10-19T07:03:53.670Z,1.17
2018-10-19T07:06:21.721Z,1.37
2018-10-19T07:08:49.795Z,3.40
2018-10-19T07:11:17.874Z,1.03
2018-10-19T07:13:45.951Z,1.23
2018-10-19T07:16:14.052Z,1.50
2018-10-19T07:18:42.111Z,0.87
2018-10-19T07:21:10.163Z,1.57
2018-10-19T07:23:38.216Z,1.73
2018-10-19T07:26:06.373Z,2.27
2018-10-19T07:28:34.356Z,1.03
2018-10-19T07:31:02.436Z,1.67
2018-10-19T07:33:30.537Z,1.00
2018-10-19T07:35:58.622Z,1.17
2018-10-19T07:38:26.685Z,1.10
2018-10-19T07:40:55.654Z,1.87
2018-10-19T07:43:23.758Z,1.50
2018-10-19T07:45:51.822Z,1.17
2018-10-19T07:48:20.935Z,1.53
2018-10-19T07:50:48.984Z,1.30
2018-10-19T07:53:17.021Z,1.33
2018-10-19T07:55:45.156Z,1.40
2018-10-19T07:58:14.208Z,1.63
2018-10-19T08:00:42.311Z,1.43
2018-10-19T08:03:10.370Z,2.37
2018-10-19T08:05:38.443Z,0.93
2018-10-19T08:08:06.562Z,1.77
2018-10-19T08:10:34.569Z,1.50
2018-10-19T08:13:02.674Z,1.17
2018-10-19T08:15:30.720Z,0.90
2018-10-19T08:17:58.867Z,1.00
2018-10-19T08:20:26.974Z,1.90
2018-10-19T08:22:55.075Z,1.40
2018-10-19T08:25:23.108Z,1.13
2018-10-19T08:27:51.167Z,1.47
2018-10-19T08:30:19.305Z,1.17
2018-10-19T08:32:47.425Z,1.30
2018-10-19T08:35:16.484Z,1.10
2018-10-19T08:37:44.596Z,2.40
2018-10-19T08:40:12.700Z,1.67
2018-10-19T08:42:40.759Z,1.30
2018-10-19T08:45:08.885Z,1.00
2018-10-19T08:47:36.922Z,0.97
2018-10-19T08:50:05.911Z,1.57
2018-10-19T08:52:34.016Z,4.27
2018-10-19T08:55:02.126Z,1.20
2018-10-19T08:57:30.229Z,1.50
2018-10-19T08:59:58.263Z,1.50
2018-10-19T09:02:26.364Z,1.50
2018-10-19T09:04:54.475Z,1.23
2018-10-19T09:07:22.626Z,1.20
2018-10-19T09:09:50.659Z,1.30
2018-10-19T09:12:18.779Z,1.03
2018-10-19T09:14:51.419Z,1.00
2018-10-19T09:17:19.490Z,0.50
2018-10-19T09:19:48.006Z,0.70
2018-10-19T09:22:16.021Z,1.23
2018-10-19T09:24:44.094Z,1.17
2018-10-19T09:27:12.333Z,0.47
2018-10-19T09:29:40.444Z,0.80
2018-10-19T09:32:08.623Z,1.20
2018-10-19T09:34:36.904Z,0.80
2018-10-19T09:37:06.122Z,0.90
2018-10-19T09:39:34.116Z,0.80
2018-10-19T09:42:02.184Z,0.80
2018-10-19T09:44:30.212Z,0.93
2018-10-19T09:46:58.319Z,0.80
2018-10-19T09:49:26.373Z,0.97
2018-10-19T09:51:54.469Z,0.80
2018-10-19T09:54:22.581Z,0.70
2018-10-19T09:56:50.699Z,0.90
2018-10-19T10:00:48.738Z,0.90
2018-10-19T10:03:16.952Z,1.33
2018-10-19T10:05:45.029Z,0.80
2018-10-19T10:08:13.125Z,1.00
2018-10-19T10:10:41.253Z,1.20
2018-10-19T10:13:11.452Z,0.70
2018-10-19T10:15:39.671Z,0.88
2018-10-19T10:18:07.794Z,0.50
2018-10-19T10:20:35.975Z,1.13
2018-10-19T10:23:04.421Z,0.85
2018-10-19T10:25:33.507Z,0.60
2018-10-19T10:28:01.610Z,0.93
2018-10-19T10:30:29.734Z,0.90
2018-10-19T10:32:57.851Z,0.50
2018-10-19T10:35:25.971Z,0.60
2018-10-19T10:37:54.105Z,0.70
2018-10-19T10:40:22.250Z,0.50
2018-10-19T10:42:50.376Z,0.67
2018-10-19T10:45:18.499Z,0.90
2018-10-19T10:47:46.585Z,0.67
2018-10-19T10:50:14.637Z,0.73
2018-10-19T10:52:42.716Z,0.70
2018-10-19T10:55:10.917Z,0.90
2018-10-19T10:57:39.010Z,0.60
2018-10-19T11:00:07.276Z,0.60
2018-10-19T11:02:36.376Z,1.30
2018-10-19T11:05:04.829Z,0.80
2018-10-19T11:07:35.082Z,0.57
2018-10-19T11:10:03.035Z,0.97
2018-10-19T11:12:31.018Z,0.80
2018-10-19T11:14:59.138Z,0.53
2018-10-19T11:17:27.251Z,0.87
2018-10-19T11:19:55.304Z,1.10
2018-10-19T11:22:23.355Z,0.50
2018-10-19T11:24:51.440Z,0.70
2018-10-19T11:27:19.512Z,0.80
2018-10-19T11:29:47.589Z,0.73
2018-10-19T11:32:15.656Z,0.90
2018-10-19T11:34:43.768Z,0.83
2018-10-19T11:37:12.000Z,0.90
2018-10-19T11:39:51.644Z,0.87
2018-10-19T11:42:19.922Z,0.70
2018-10-19T11:44:48.010Z,0.77
2018-10-19T11:47:16.086Z,0.50
2018-10-19T11:49:44.231Z,0.63
2018-10-19T11:52:12.301Z,0.90
2018-10-19T11:54:40.430Z,0.90
2018-10-19T11:57:08.710Z,0.90
2018-10-19T11:59:36.748Z,1.00
2018-10-19T12:02:05.007Z,3.97
2018-10-19T12:04:33.063Z,0.87
2018-10-19T12:07:01.194Z,0.70
2018-10-19T12:09:29.209Z,0.60
2018-10-19T12:11:57.320Z,0.60
2018-10-19T12:14:25.374Z,1.13
2018-10-19T12:16:53.714Z,0.40
2018-10-19T12:19:21.813Z,0.87
2018-10-19T12:21:49.910Z,0.93
2018-10-19T12:24:17.957Z,0.60
2018-10-19T12:26:46.619Z,0.60
2018-10-19T12:29:14.713Z,0.43
2018-10-19T12:31:42.793Z,0.70
2018-10-19T12:34:10.873Z,0.87
2018-10-19T12:36:38.941Z,0.50
2018-10-19T12:39:09.499Z,0.70
2018-10-19T12:41:37.533Z,0.70
2018-10-19T12:44:05.723Z,0.67
2018-10-19T12:46:46.386Z,0.73
2018-10-19T12:49:16.897Z,0.97
2018-10-19T12:51:44.884Z,0.80
2018-10-19T12:54:13.049Z,0.50
2018-10-19T12:56:41.289Z,0.60
2018-10-19T12:59:09.465Z,0.70
2018-10-19T13:01:37.577Z,0.40
2018-10-19T13:04:06.662Z,0.67
2018-10-19T13:06:35.710Z,1.10
2018-10-19T13:09:07.242Z,1.10
2018-10-19T13:11:35.613Z,0.63
2018-10-19T13:14:03.807Z,0.70
2018-10-19T13:16:31.909Z,0.73
2018-10-19T13:19:00.098Z,0.70
2018-10-19T13:21:28.227Z,0.77
2018-10-19T13:23:56.302Z,0.73
2018-10-19T13:26:24.373Z,0.70
2018-10-19T13:28:52.440Z,0.83
2018-10-19T13:31:20.592Z,0.40
2018-10-19T13:33:48.787Z,1.13
2018-10-19T13:36:17.944Z,0.50
2018-10-19T13:38:47.049Z,0.80
2018-10-19T13:41:15.160Z,0.70
2018-10-19T13:43:43.650Z,0.70
2018-10-19T13:46:11.875Z,0.70
2018-10-19T13:48:40.041Z,0.80
2018-10-19T13:51:08.217Z,0.50
2018-10-19T13:53:36.299Z,0.87
2018-10-19T13:56:04.379Z,0.63
2018-10-19T13:58:32.551Z,0.60
2018-10-19T14:01:00.666Z,0.60
2018-10-19T14:03:28.810Z,0.70
2018-10-19T14:05:56.953Z,0.60
2018-10-19T14:08:25.085Z,0.30
2018-10-19T14:10:53.151Z,0.60
2018-10-19T14:13:21.231Z,0.40
2018-10-19T14:15:49.438Z,0.77
2018-10-19T14:18:17.533Z,0.70
2018-10-19T14:20:45.647Z,0.57
2018-10-19T14:23:13.860Z,0.80
2018-10-19T14:25:41.971Z,0.63
2018-10-19T14:28:10.020Z,0.70
2018-10-19T14:30:38.185Z,0.83
2018-10-19T14:33:06.473Z,0.90
2018-10-19T14:35:35.147Z,0.63
2018-10-19T14:38:03.267Z,1.13
2018-10-19T14:40:31.522Z,0.60
2018-10-19T14:42:59.656Z,0.90
2018-10-19T14:45:28.026Z,0.40
2018-10-19T14:47:56.213Z,0.50
2018-10-19T14:50:24.356Z,0.87
2018-10-19T14:52:52.440Z,0.70
2018-10-19T14:55:20.669Z,1.00
2018-10-19T14:57:48.775Z,0.60
2018-10-19T15:00:18.167Z,0.53
2018-10-19T15:02:46.500Z,1.23
2018-10-19T15:05:18.931Z,0.73
2018-10-19T15:07:46.997Z,0.80
2018-10-19T15:10:16.934Z,0.50
2018-10-19T15:13:48.433Z,0.60
2018-10-19T15:16:16.517Z,0.90
2018-10-19T15:18:44.600Z,0.80
2018-10-19T15:21:12.691Z,0.67
2018-10-19T15:23:40.735Z,0.53
2018-10-19T15:26:09.809Z,0.50
2018-10-19T15:28:37.885Z,0.70
2018-10-19T15:31:06.040Z,1.00
2018-10-19T15:33:34.137Z,1.07
2018-10-19T15:36:02.249Z,1.13
2018-10-19T15:38:30.291Z,0.90
2018-10-19T15:40:58.393Z,1.00
2018-10-19T15:43:26.411Z,0.83
2018-10-19T15:45:54.618Z,0.70
2018-10-19T15:48:22.650Z,0.70
2018-10-19T15:50:50.791Z,0.70
2018-10-19T15:53:20.915Z,1.17
2018-10-19T15:55:48.973Z,0.97
2018-10-19T15:58:17.030Z,1.10
2018-10-19T16:00:45.446Z,1.33
2018-10-19T16:03:13.573Z,0.97
2018-10-19T16:05:41.709Z,1.00
2018-10-19T16:08:09.884Z,1.20
2018-10-19T16:10:38.054Z,1.07
2018-10-19T16:13:06.147Z,1.03
2018-10-19T16:15:34.274Z,1.10
2018-10-19T16:18:02.421Z,1.27
2018-10-19T16:20:30.459Z,0.63
2018-10-19T16:22:58.574Z,1.20
2018-10-19T16:25:26.632Z,1.00
2018-10-19T16:27:54.696Z,1.20
2018-10-19T16:30:23.807Z,1.07
2018-10-19T16:32:51.916Z,1.07
2018-10-19T16:35:19.968Z,1.40
2018-10-19T16:37:48.032Z,1.60
2018-10-19T16:40:16.121Z,1.60
2018-10-19T16:42:44.153Z,1.40
2018-10-19T16:45:12.291Z,1.40
2018-10-19T16:47:40.345Z,1.77
2018-10-19T16:50:08.440Z,1.33
2018-10-19T16:52:36.595Z,1.80
2018-10-19T16:55:05.156Z,1.70
2018-10-19T16:57:34.227Z,1.93
2018-10-19T17:00:02.571Z,1.30
2018-10-19T17:02:30.648Z,2.00
2018-10-19T17:04:58.803Z,1.30
2018-10-19T17:07:26.944Z,2.00
2018-10-19T17:09:55.028Z,1.23
2018-10-19T17:12:23.123Z,1.23
2018-10-19T17:14:51.276Z,1.30
2018-10-19T17:17:20.358Z,1.70
2018-10-19T17:19:48.463Z,1.60
2018-10-19T17:22:17.622Z,1.20
2018-10-19T17:24:45.674Z,1.63
2018-10-19T17:27:13.963Z,1.23
2018-10-19T17:29:42.645Z,1.63
2018-10-19T17:32:11.867Z,1.90
2018-10-19T17:34:39.907Z,1.60
2018-10-19T17:37:08.048Z,1.70
2018-10-19T17:39:36.102Z,1.63
2018-10-19T17:42:04.501Z,1.87
2018-10-19T17:44:32.505Z,2.27
2018-10-19T17:49:08.469Z,1.63
2018-10-19T17:51:36.471Z,1.50
2018-10-19T17:54:04.803Z,1.57
2018-10-19T17:56:32.817Z,1.70
2018-10-19T17:59:00.930Z,1.50
2018-10-19T18:01:28.944Z,1.30
2018-10-19T18:03:57.082Z,2.73
2018-10-19T18:06:25.272Z,1.33
2018-10-19T18:08:53.412Z,1.73
2018-10-19T18:11:21.451Z,2.20
2018-10-19T18:13:49.528Z,2.17
2018-10-19T18:16:17.600Z,2.33
2018-10-19T18:18:45.655Z,1.80
2018-10-19T18:21:13.920Z,2.37
2018-10-19T18:23:41.899Z,2.93
2018-10-19T18:26:10.007Z,2.40
2018-10-19T18:28:38.071Z,2.87
2018-10-19T18:31:06.264Z,2.93
2018-10-19T18:33:34.307Z,2.60
2018-10-19T18:36:02.361Z,3.17
2018-10-19T18:38:30.455Z,5.33
2018-10-19T18:40:58.555Z,3.77
2018-10-19T18:43:26.612Z,3.57
2018-10-19T18:45:54.656Z,2.73
2018-10-19T18:48:22.772Z,2.77
2018-10-19T18:50:50.909Z,3.33
2018-10-19T18:53:18.967Z,3.67
2018-10-19T18:55:46.963Z,2.97
2018-10-19T18:58:15.110Z,2.47
2018-10-19T19:00:43.258Z,3.73
2018-10-19T19:03:11.431Z,3.23
2018-10-19T19:05:39.549Z,3.00
2018-10-19T19:08:07.660Z,2.50
2018-10-19T19:10:35.711Z,3.03
2018-10-19T19:13:09.365Z,3.37
2018-10-19T19:15:37.525Z,2.93
2018-10-19T19:18:05.722Z,3.13
2018-10-19T19:20:33.868Z,2.63
2018-10-19T19:23:02.054Z,5.33
2018-10-19T19:25:36.567Z,3.07
2018-10-19T19:28:04.950Z,2.77
2018-10-19T19:30:33.007Z,2.60
2018-10-19T19:33:06.742Z,2.30
2018-10-19T19:35:34.892Z,3.23
2018-10-19T19:38:02.976Z,2.43
2018-10-19T19:40:35.299Z,2.80
2018-10-19T19:43:03.310Z,3.03
2018-10-19T19:45:31.426Z,2.53
2018-10-19T19:48:05.016Z,2.70
2018-10-19T19:50:33.127Z,2.80
2018-10-19T19:53:01.284Z,2.50
2018-10-19T19:55:29.414Z,2.70
2018-10-19T19:57:57.612Z,2.80
2018-10-19T20:00:25.637Z,2.70
2018-10-19T20:02:53.681Z,2.60
2018-10-19T20:05:21.760Z,2.80
2018-10-19T20:07:49.820Z,2.87
2018-10-19T20:10:17.887Z,2.60
2018-10-19T20:12:46.009Z,2.40
2018-10-19T20:15:14.091Z,3.13
2018-10-19T20:17:42.288Z,3.00
2018-10-19T20:20:11.935Z,2.60
2018-10-19T20:22:40.652Z,2.03
2018-10-19T20:25:09.827Z,2.43
2018-10-19T20:27:38.601Z,2.63
2018-10-19T20:30:09.016Z,3.20
2018-10-19T20:32:37.607Z,2.20
2018-10-19T20:35:05.629Z,2.70
2018-10-19T20:37:33.755Z,2.87
2018-10-19T20:40:01.876Z,2.77
2018-10-19T20:42:29.913Z,2.60
2018-10-19T20:44:58.016Z,2.77
2018-10-19T20:47:26.077Z,2.50
2018-10-19T20:49:55.207Z,2.40
2018-10-19T20:52:23.314Z,1.90
2018-10-19T20:54:52.425Z,2.43
2018-10-19T20:57:20.504Z,14.77
2018-10-19T20:59:49.570Z,5.87
2018-10-19T21:02:17.671Z,3.03
2018-10-19T21:04:45.712Z,2.10
2018-10-19T21:07:13.808Z,2.83
2018-10-19T21:09:41.865Z,2.40
2018-10-19T21:12:09.978Z,3.13
2018-10-19T21:14:38.027Z,2.97
2018-10-19T21:17:06.145Z,2.40
2018-10-19T21:19:34.210Z,3.00
2018-10-19T21:22:02.281Z,2.43
2018-10-19T21:24:30.337Z,2.43
2018-10-19T21:26:58.382Z,1.97
2018-10-19T21:29:26.515Z,2.37
2018-10-19T21:31:54.738Z,2.77
2018-10-19T21:34:22.813Z,2.43
2018-10-19T21:36:50.938Z,2.37
2018-10-19T21:39:19.058Z,2.10
2018-10-19T21:41:47.115Z,2.80
2018-10-19T21:44:15.339Z,2.30
2018-10-19T21:46:43.395Z,3.07
2018-10-19T21:49:11.420Z,2.83
2018-10-19T21:51:39.550Z,3.03
2018-10-19T21:54:07.687Z,2.57
2018-10-19T21:58:21.689Z,2.00
2018-10-19T22:00:49.712Z,2.37
2018-10-19T22:03:17.795Z,2.97
2018-10-19T22:05:45.857Z,2.73
2018-10-19T22:08:13.924Z,3.40
2018-10-19T22:10:42.025Z,3.03
2018-10-19T22:13:10.187Z,2.40
2018-10-19T22:15:38.170Z,2.50
2018-10-19T22:18:06.263Z,2.77
2018-10-19T22:20:34.328Z,2.77
2018-10-19T22:23:02.388Z,3.10
2018-10-19T22:25:30.425Z,2.43
2018-10-19T22:27:58.525Z,2.93
2018-10-19T22:30:26.602Z,3.20
2018-10-19T22:32:54.667Z,2.53
2018-10-19T22:35:22.701Z,2.63
2018-10-19T22:37:50.797Z,2.70
2018-10-19T22:40:18.919Z,3.07
2018-10-19T22:42:47.053Z,2.43
2018-10-19T22:45:15.115Z,2.20
2018-10-19T22:47:43.190Z,1.97
2018-10-19T22:50:11.333Z,3.20
2018-10-19T22:52:39.430Z,2.13
2018-10-19T22:55:07.555Z,2.07
2018-10-19T22:57:35.629Z,2.90
2018-10-19T23:00:03.755Z,2.37
2018-10-19T23:02:31.815Z,3.17
2018-10-19T23:04:59.931Z,3.80
2018-10-19T23:07:27.979Z,3.13
2018-10-19T23:09:56.095Z,3.00
2018-10-19T23:12:24.250Z,3.40
2018-10-19T23:14:52.288Z,2.77
2018-10-19T23:18:49.675Z,3.40
2018-10-19T23:21:17.745Z,3.60
2018-10-19T23:23:45.797Z,3.90
2018-10-19T23:26:13.960Z,3.90
2018-10-19T23:28:42.085Z,3.63
2018-10-19T23:31:10.213Z,2.70
2018-10-19T23:33:38.175Z,3.30
2018-10-19T23:36:06.289Z,3.00
2018-10-19T23:38:34.328Z,3.70
2018-10-19T23:41:02.429Z,3.90
2018-10-19T23:43:30.508Z,3.77
2018-10-19T23:45:59.574Z,3.20
2018-10-19T23:48:27.650Z,3.20
2018-10-19T23:50:55.722Z,3.70
2018-10-19T23:53:23.792Z,3.47
2018-10-19T23:55:51.877Z,3.30
2018-10-19T23:58:19.961Z,3.73
